createdAt,value
2022-12-20T00:02:27.397Z,18.23
2022-12-20T00:04:57.236Z,21.37
2022-12-20T00:07:26.893Z,13.67
2022-12-20T00:09:59.425Z,15.60
2022-12-20T00:12:28.963Z,17.47
2022-12-20T00:14:58.393Z,18.77
2022-12-20T00:17:29.716Z,22.53
2022-12-20T00:19:59.282Z,14.23
2022-12-20T00:22:28.725Z,14.80
2022-12-20T00:25:00.952Z,18.90
2022-12-20T00:27:30.525Z,15.07
2022-12-20T00:30:00.091Z,14.67
2022-12-20T00:32:30.206Z,15.03
2022-12-20T00:34:59.688Z,16.03
2022-12-20T00:37:29.352Z,16.20
2022-12-20T00:40:01.479Z,16.37
2022-12-20T00:42:31.218Z,16.47
2022-12-20T00:45:00.772Z,18.17
2022-12-20T00:47:30.582Z,15.67
2022-12-20T00:50:00.138Z,16.63
2022-12-20T00:52:29.624Z,15.80
2022-12-20T00:55:02.020Z,14.20
2022-12-20T00:57:31.555Z,19.90
2022-12-20T01:00:01.033Z,15.70
2022-12-20T01:02:30.697Z,16.90
2022-12-20T01:05:00.222Z,13.07
2022-12-20T01:07:29.733Z,17.33
2022-12-20T01:10:02.469Z,12.63
2022-12-20T01:12:32.002Z,17.30
2022-12-20T01:15:01.476Z,12.53
2022-12-20T01:17:31.017Z,14.60
2022-12-20T01:20:00.745Z,13.53
2022-12-20T01:22:30.176Z,14.90
2022-12-20T01:25:02.263Z,14.80
2022-12-20T01:27:32.348Z,15.67
2022-12-20T01:30:01.789Z,14.80
2022-12-20T01:32:31.380Z,17.57
2022-12-20T01:35:00.925Z,17.90
2022-12-20T01:37:30.475Z,17.23
2022-12-20T01:40:02.968Z,16.47
2022-12-20T01:42:32.517Z,13.80
2022-12-20T01:45:02.446Z,12.03
2022-12-20T01:47:33.815Z,17.07
2022-12-20T01:50:04.608Z,16.03
2022-12-20T01:52:36.050Z,13.90
2022-12-20T01:55:10.898Z,15.77
2022-12-20T01:57:44.035Z,13.13
2022-12-20T02:00:14.418Z,16.53
2022-12-20T02:02:44.453Z,14.77
2022-12-20T02:05:14.771Z,14.30
2022-12-20T02:07:48.581Z,18.10
2022-12-20T02:10:21.956Z,16.23
2022-12-20T02:12:53.184Z,16.63
2022-12-20T02:15:31.947Z,14.23
2022-12-20T02:18:09.205Z,14.23
2022-12-20T02:20:49.708Z,16.20
2022-12-20T02:23:34.239Z,14.17
2022-12-20T02:26:16.053Z,15.83
2022-12-20T02:28:55.982Z,14.57
2022-12-20T02:31:31.496Z,19.40
2022-12-20T02:34:06.078Z,16.77
2022-12-20T02:36:35.663Z,18.27
2022-12-20T02:39:05.140Z,15.63
2022-12-20T02:41:37.186Z,15.17
2022-12-20T02:44:29.248Z,16.90
2022-12-20T02:47:03.179Z,14.03
2022-12-20T02:49:35.473Z,12.93
2022-12-20T02:52:06.253Z,13.83
2022-12-20T02:54:36.216Z,15.57
2022-12-20T02:57:09.391Z,16.37
2022-12-20T02:59:40.828Z,12.10
2022-12-20T03:02:13.481Z,15.93
2022-12-20T03:04:43.775Z,15.07
2022-12-20T03:07:15.693Z,11.13
2022-12-20T03:09:46.670Z,16.93
2022-12-20T03:12:18.784Z,13.00
2022-12-20T03:14:48.293Z,13.23
2022-12-20T03:17:21.207Z,14.10
2022-12-20T03:19:50.779Z,15.50
2022-12-20T03:22:20.546Z,17.03
2022-12-20T03:24:50.069Z,12.23
2022-12-20T03:27:20.247Z,17.87
2022-12-20T03:29:50.058Z,14.70
2022-12-20T03:32:22.367Z,16.07
2022-12-20T03:34:52.490Z,18.27
2022-12-20T03:37:29.722Z,11.43
2022-12-20T03:39:59.569Z,12.70
2022-12-20T03:42:29.035Z,14.50
2022-12-20T03:44:58.615Z,15.40
2022-12-20T03:47:33.392Z,14.37
2022-12-20T03:50:02.906Z,13.33
2022-12-20T03:52:36.250Z,14.70
2022-12-20T03:55:07.777Z,14.23
2022-12-20T03:57:45.720Z,16.90
2022-12-20T04:00:31.118Z,12.93
2022-12-20T04:03:21.271Z,13.83
2022-12-20T04:05:52.072Z,11.47
2022-12-20T04:08:21.740Z,12.47
2022-12-20T04:11:05.601Z,12.47
2022-12-20T04:13:37.808Z,17.00
2022-12-20T04:16:08.349Z,15.57
2022-12-20T04:18:40.703Z,13.77
2022-12-20T04:21:10.739Z,11.40
2022-12-20T04:23:44.387Z,15.63
2022-12-20T04:26:15.401Z,11.87
2022-12-20T04:28:45.116Z,13.23
2022-12-20T04:31:21.744Z,16.57
2022-12-20T04:33:56.652Z,16.53
2022-12-20T04:36:26.645Z,12.73
2022-12-20T04:38:58.472Z,13.70
2022-12-20T04:41:28.272Z,13.73
2022-12-20T04:44:02.924Z,15.27
2022-12-20T04:46:38.684Z,12.50
2022-12-20T04:49:15.350Z,18.70
2022-12-20T04:51:46.854Z,15.37
2022-12-20T04:54:16.331Z,14.10
2022-12-20T04:56:53.386Z,16.13
2022-12-20T04:59:25.259Z,17.57
2022-12-20T05:01:56.888Z,14.27
2022-12-20T05:04:48.071Z,17.30
2022-12-20T05:07:17.649Z,14.83
2022-12-20T05:09:53.296Z,15.73
2022-12-20T05:12:22.909Z,13.53
2022-12-20T05:14:52.434Z,19.00
2022-12-20T05:17:24.610Z,15.93
2022-12-20T05:19:58.488Z,15.73
2022-12-20T05:22:40.878Z,15.33
2022-12-20T05:25:26.445Z,15.60
2022-12-20T05:27:57.898Z,17.80
2022-12-20T05:30:30.047Z,17.33
2022-12-20T05:33:00.371Z,17.80
2022-12-20T05:35:32.881Z,15.23
2022-12-20T05:38:07.746Z,21.40
2022-12-20T05:40:38.093Z,16.57
2022-12-20T05:43:07.580Z,17.27
2022-12-20T05:45:42.305Z,15.50
2022-12-20T05:48:17.267Z,14.07
2022-12-20T05:50:50.096Z,18.33
2022-12-20T05:53:27.108Z,14.50
2022-12-20T05:56:01.380Z,18.00
2022-12-20T05:58:36.726Z,12.83
2022-12-20T06:01:10.418Z,15.63
2022-12-20T06:03:41.939Z,13.43
2022-12-20T06:06:20.499Z,15.17
2022-12-20T06:08:51.137Z,13.13
2022-12-20T06:11:30.088Z,12.87
2022-12-20T06:14:06.712Z,13.83
2022-12-20T06:16:39.044Z,15.87
2022-12-20T06:19:12.525Z,17.47
2022-12-20T06:21:46.850Z,15.43
2022-12-20T06:24:19.036Z,19.90
2022-12-20T06:26:48.826Z,12.97
2022-12-20T06:29:20.857Z,15.93
2022-12-20T06:31:57.572Z,15.70
2022-12-20T06:34:27.479Z,19.87
2022-12-20T06:36:59.624Z,13.13
2022-12-20T06:39:32.449Z,17.20
2022-12-20T06:42:05.836Z,18.97
2022-12-20T06:44:37.673Z,16.83
2022-12-20T06:47:07.691Z,15.63
2022-12-20T06:49:37.536Z,15.87
2022-12-20T06:52:16.166Z,15.60
2022-12-20T06:54:51.652Z,18.37
2022-12-20T06:57:23.247Z,18.10
2022-12-20T06:59:54.155Z,15.90
2022-12-20T07:02:27.132Z,15.20
2022-12-20T07:04:57.321Z,16.23
2022-12-20T07:07:29.404Z,19.63
2022-12-20T07:09:59.563Z,20.23
2022-12-20T07:12:29.090Z,13.20
2022-12-20T07:14:58.566Z,16.07
2022-12-20T07:17:28.099Z,17.10
2022-12-20T07:19:57.635Z,17.13
2022-12-20T07:22:29.786Z,15.80
2022-12-20T07:24:59.324Z,18.27
2022-12-20T07:27:28.809Z,16.97
2022-12-20T07:29:58.398Z,15.67
2022-12-20T07:32:27.911Z,13.10
2022-12-20T07:34:57.494Z,17.40
2022-12-20T07:37:31.104Z,15.63
2022-12-20T07:40:00.688Z,12.47
2022-12-20T07:42:36.091Z,14.33
2022-12-20T07:45:09.490Z,15.43
2022-12-20T07:47:39.150Z,15.07
2022-12-20T07:50:09.784Z,13.70
2022-12-20T07:52:42.931Z,15.43
2022-12-20T07:55:13.875Z,15.60
2022-12-20T07:57:45.698Z,17.67
2022-12-20T08:00:16.505Z,13.17
2022-12-20T08:02:49.022Z,16.80
2022-12-20T08:05:18.742Z,14.77
2022-12-20T08:07:58.499Z,20.00
2022-12-20T08:10:29.295Z,15.60
2022-12-20T08:12:58.899Z,14.33
2022-12-20T08:15:28.912Z,16.57
2022-12-20T08:17:58.380Z,16.33
2022-12-20T08:20:27.876Z,15.20
2022-12-20T08:23:00.047Z,19.53
2022-12-20T08:25:29.742Z,16.43
2022-12-20T08:28:02.076Z,16.53
2022-12-20T08:30:31.887Z,15.43
2022-12-20T08:33:01.448Z,15.37
2022-12-20T08:35:31.081Z,14.30
2022-12-20T08:38:03.205Z,16.63
2022-12-20T08:40:32.784Z,15.50
2022-12-20T08:43:08.360Z,14.53
2022-12-20T08:45:39.642Z,17.02
2022-12-20T08:48:09.191Z,16.70
2022-12-20T08:50:39.090Z,14.80
2022-12-20T08:53:11.223Z,11.40
2022-12-20T08:55:40.745Z,14.57
2022-12-20T08:58:10.206Z,12.27
2022-12-20T09:00:40.191Z,17.92
2022-12-20T09:03:11.837Z,13.38
2022-12-20T09:05:46.180Z,17.35
2022-12-20T09:08:18.572Z,18.52
2022-12-20T09:10:48.532Z,19.87
2022-12-20T09:13:18.326Z,16.58
2022-12-20T09:15:48.031Z,14.55
2022-12-20T09:18:17.988Z,16.92
2022-12-20T09:20:48.126Z,17.00
2022-12-20T09:23:20.306Z,18.20
2022-12-20T09:25:53.737Z,12.88
2022-12-20T09:28:24.368Z,14.15
2022-12-20T09:31:00.682Z,15.95
2022-12-20T09:33:31.011Z,24.17
2022-12-20T09:36:01.089Z,25.60
2022-12-20T09:38:34.089Z,20.90
2022-12-20T09:41:05.669Z,21.67
2022-12-20T09:43:35.940Z,20.02
2022-12-20T09:46:06.744Z,14.75
2022-12-20T09:48:38.215Z,14.57
2022-12-20T09:51:14.136Z,16.40
2022-12-20T09:53:54.426Z,16.20
2022-12-20T09:56:27.488Z,16.98
2022-12-20T09:59:01.020Z,12.27
2022-12-20T10:01:38.281Z,12.07
2022-12-20T10:04:10.984Z,11.77
2022-12-20T10:06:49.626Z,12.45
2022-12-20T10:09:32.777Z,10.27
2022-12-20T10:12:07.053Z,10.45
2022-12-20T10:14:56.064Z,10.18
2022-12-20T10:17:32.602Z,10.43
2022-12-20T10:20:21.684Z,9.90
2022-12-20T10:22:54.241Z,10.77
2022-12-20T10:25:26.988Z,11.55
2022-12-20T10:27:59.092Z,9.93
2022-12-20T10:30:29.302Z,12.15
2022-12-20T10:32:59.482Z,11.02
2022-12-20T10:35:29.713Z,12.40
2022-12-20T10:38:08.473Z,10.23
2022-12-20T10:43:40.135Z,8.50
2022-12-20T10:46:11.353Z,9.35
2022-12-20T10:48:42.628Z,10.90
2022-12-20T10:51:17.116Z,9.88
2022-12-20T10:53:54.538Z,9.80
2022-12-20T10:56:28.012Z,11.45
2022-12-20T10:58:58.971Z,8.55
2022-12-20T11:01:30.854Z,15.38
2022-12-20T11:04:02.438Z,9.95
2022-12-20T11:06:42.528Z,12.90
2022-12-20T11:09:26.409Z,12.45
2022-12-20T11:12:06.251Z,12.40
2022-12-20T11:14:39.325Z,11.70
2022-12-20T11:17:20.512Z,20.50
2022-12-20T11:19:58.119Z,14.75
2022-12-20T11:22:32.987Z,15.13
2022-12-20T11:25:08.875Z,14.93
2022-12-20T11:27:44.756Z,13.98
2022-12-20T11:30:20.214Z,13.45
2022-12-20T11:33:07.830Z,13.60
2022-12-20T11:35:44.612Z,14.10
2022-12-20T11:38:18.983Z,16.38
2022-12-20T11:40:50.953Z,16.23
2022-12-20T11:43:30.586Z,13.25
2022-12-20T11:46:07.687Z,12.32
2022-12-20T11:48:43.468Z,13.02
2022-12-20T11:51:22.900Z,12.25
2022-12-20T11:53:59.103Z,11.00
2022-12-20T11:56:30.984Z,10.43
2022-12-20T11:59:05.230Z,9.95
2022-12-20T12:01:37.808Z,12.40
2022-12-20T12:04:11.600Z,10.27
2022-12-20T12:06:42.953Z,10.65
2022-12-20T12:09:18.116Z,9.63
2022-12-20T12:12:07.940Z,10.88
2022-12-20T12:14:46.495Z,11.77
2022-12-20T12:17:18.271Z,8.43
2022-12-20T12:19:49.527Z,12.02
2022-12-20T12:22:21.884Z,10.73
2022-12-20T12:24:52.893Z,10.38
2022-12-20T12:27:25.370Z,9.38
2022-12-20T12:29:58.652Z,7.88
2022-12-20T12:32:32.563Z,9.55
2022-12-20T12:35:17.305Z,9.70
2022-12-20T12:37:57.153Z,9.05
2022-12-20T12:40:43.908Z,9.98
2022-12-20T12:43:33.032Z,8.10
2022-12-20T12:46:12.346Z,7.13
2022-12-20T12:48:45.098Z,8.65
2022-12-20T12:51:16.473Z,8.43
2022-12-20T12:53:47.344Z,9.05
2022-12-20T12:56:43.777Z,9.38
2022-12-20T12:59:25.952Z,12.65
2022-12-20T13:02:00.620Z,8.43
2022-12-20T13:04:31.809Z,11.13
2022-12-20T13:07:05.339Z,10.93
2022-12-20T13:09:42.216Z,8.13
2022-12-20T13:12:26.853Z,8.52
2022-12-20T13:14:56.423Z,8.20
2022-12-20T13:17:46.939Z,7.75
2022-12-20T13:20:26.211Z,9.23
2022-12-20T13:23:13.636Z,8.77
2022-12-20T13:25:43.991Z,7.60
2022-12-20T13:28:28.686Z,10.05
2022-12-20T13:31:13.133Z,7.50
2022-12-20T13:33:43.818Z,11.18
2022-12-20T13:36:37.476Z,7.60
2022-12-20T13:39:30.551Z,10.07
2022-12-20T13:42:15.388Z,7.88
2022-12-20T13:44:47.539Z,8.25
2022-12-20T13:47:27.305Z,9.40
2022-12-20T13:49:56.917Z,8.30
2022-12-20T13:52:31.599Z,9.90
2022-12-20T13:55:08.231Z,9.27
2022-12-20T13:57:43.690Z,10.35
2022-12-20T14:00:17.977Z,9.43
2022-12-20T14:02:47.983Z,14.50
2022-12-20T14:05:19.469Z,20.40
2022-12-20T14:07:50.652Z,20.55
2022-12-20T14:10:25.775Z,19.27
2022-12-20T14:12:55.498Z,18.23
2022-12-20T14:15:26.161Z,21.20
2022-12-20T14:17:55.789Z,14.27
2022-12-20T14:20:31.637Z,18.00
2022-12-20T14:23:06.321Z,17.00
2022-12-20T14:25:45.300Z,16.55
2022-12-20T14:28:27.044Z,15.00
2022-12-20T14:30:57.527Z,10.57
2022-12-20T14:33:36.722Z,9.63
2022-12-20T14:36:13.585Z,12.43
2022-12-20T14:38:43.489Z,10.07
2022-12-20T14:41:27.863Z,8.10
2022-12-20T14:44:01.419Z,8.40
2022-12-20T14:46:31.895Z,10.25
2022-12-20T14:49:11.014Z,9.35
2022-12-20T14:51:41.447Z,14.25
2022-12-20T14:54:32.694Z,13.48
2022-12-20T14:57:03.732Z,15.32
2022-12-20T14:59:35.885Z,18.33
2022-12-20T15:02:20.357Z,16.90
2022-12-20T15:04:52.553Z,15.00
2022-12-20T15:07:32.214Z,9.07
2022-12-20T15:10:01.823Z,10.93
2022-12-20T15:12:31.530Z,11.57
2022-12-20T15:15:23.952Z,9.90
2022-12-20T15:17:53.304Z,11.88
2022-12-20T15:20:23.224Z,11.80
2022-12-20T15:22:52.868Z,13.98
2022-12-20T15:25:22.369Z,13.77
2022-12-20T15:27:52.296Z,14.32
2022-12-20T15:30:24.780Z,15.73
2022-12-20T15:32:55.964Z,10.02
2022-12-20T15:35:25.717Z,9.80
2022-12-20T15:37:55.349Z,11.98
2022-12-20T15:40:24.952Z,10.73
2022-12-20T15:42:54.480Z,11.25
2022-12-20T15:45:27.435Z,14.43
2022-12-20T15:47:57.627Z,11.57
2022-12-20T15:50:27.109Z,13.38
2022-12-20T15:52:56.946Z,17.23
2022-12-20T15:55:26.589Z,14.70
2022-12-20T15:57:56.032Z,17.50
2022-12-20T16:00:28.121Z,17.23
2022-12-20T16:02:59.570Z,13.77
2022-12-20T16:05:29.331Z,14.82
2022-12-20T16:07:58.925Z,13.77
2022-12-20T16:10:28.991Z,10.95
2022-12-20T16:12:58.472Z,12.80
2022-12-20T16:15:30.578Z,9.35
2022-12-20T16:18:00.567Z,12.55
2022-12-20T16:20:30.331Z,13.98
2022-12-20T16:22:59.853Z,14.38
2022-12-20T16:25:30.827Z,12.63
2022-12-20T16:28:00.594Z,9.55
2022-12-20T16:30:32.702Z,13.13
2022-12-20T16:33:02.384Z,9.40
2022-12-20T16:35:32.999Z,10.07
2022-12-20T16:38:03.391Z,11.02
2022-12-20T16:40:33.621Z,15.60
2022-12-20T16:43:03.216Z,12.10
2022-12-20T16:45:35.737Z,10.07
2022-12-20T16:48:05.367Z,7.93
2022-12-20T16:50:36.049Z,9.20
2022-12-20T16:53:05.579Z,9.32
2022-12-20T16:55:39.739Z,9.33
2022-12-20T16:58:10.432Z,11.63
2022-12-20T17:00:42.692Z,15.40
2022-12-20T17:03:13.287Z,11.02
2022-12-20T17:05:42.975Z,11.88
2022-12-20T17:10:56.151Z,9.20
2022-12-20T17:13:26.083Z,10.15
2022-12-20T17:15:58.255Z,15.65
2022-12-20T17:18:27.869Z,22.08
2022-12-20T17:20:58.163Z,27.27
2022-12-20T17:23:42.949Z,20.30
2022-12-20T17:26:15.074Z,14.77
2022-12-20T17:28:44.583Z,9.43
2022-12-20T17:31:20.382Z,9.63
2022-12-20T17:33:50.236Z,9.45
2022-12-20T17:36:19.662Z,10.80
2022-12-20T17:38:50.799Z,8.73
2022-12-20T17:41:27.235Z,13.80
2022-12-20T17:43:57.006Z,19.65
2022-12-20T17:46:29.280Z,17.65
2022-12-20T17:48:59.495Z,23.17
2022-12-20T17:51:29.774Z,22.48
2022-12-20T17:54:00.006Z,16.05
2022-12-20T17:56:30.678Z,13.25
2022-12-20T17:59:00.764Z,14.00
2022-12-20T18:01:33.927Z,15.55
2022-12-20T18:04:05.633Z,16.70
2022-12-20T18:06:37.635Z,38.47
2022-12-20T18:09:08.057Z,22.70
2022-12-20T18:11:37.678Z,19.48
2022-12-20T18:14:07.344Z,17.13
2022-12-20T18:16:39.865Z,18.10
2022-12-20T18:19:09.897Z,18.40
2022-12-20T18:21:40.567Z,12.63
2022-12-20T18:24:13.443Z,14.53
2022-12-20T18:26:42.996Z,14.25
2022-12-20T18:29:13.136Z,13.63
2022-12-20T18:31:45.437Z,14.90
2022-12-20T18:34:15.068Z,17.03
2022-12-20T18:36:44.605Z,15.23
2022-12-20T18:39:15.199Z,13.67
2022-12-20T18:41:45.218Z,10.30
2022-12-20T18:44:14.707Z,11.37
2022-12-20T18:46:47.107Z,11.67
2022-12-20T18:49:16.646Z,11.27
2022-12-20T18:51:46.199Z,14.13
2022-12-20T18:54:16.989Z,11.60
2022-12-20T18:56:46.605Z,14.90
2022-12-20T18:59:16.564Z,9.03
2022-12-20T19:01:48.961Z,13.03
2022-12-20T19:04:24.284Z,12.30
2022-12-20T19:06:54.733Z,13.73
2022-12-20T19:09:25.030Z,12.17
2022-12-20T19:11:57.448Z,13.47
2022-12-20T19:14:27.655Z,13.70
2022-12-20T19:16:59.897Z,12.80
2022-12-20T19:19:29.600Z,12.43
2022-12-20T19:21:59.188Z,10.33
2022-12-20T19:24:28.682Z,11.20
2022-12-20T19:26:58.262Z,14.83
2022-12-20T19:29:27.841Z,12.13
2022-12-20T19:32:00.152Z,14.50
2022-12-20T19:34:29.656Z,14.27
2022-12-20T19:36:59.128Z,14.30
2022-12-20T19:39:30.524Z,13.13
2022-12-20T19:42:23.005Z,10.60
2022-12-20T19:44:50.376Z,11.07
2022-12-20T19:47:22.462Z,11.70
2022-12-20T19:49:52.231Z,10.65
2022-12-20T19:52:28.911Z,11.23
2022-12-20T19:54:58.589Z,10.25
2022-12-20T19:57:28.085Z,9.05
2022-12-20T19:59:57.722Z,10.15
2022-12-20T20:02:29.977Z,10.18
2022-12-20T20:04:59.599Z,13.98
2022-12-20T20:07:29.047Z,10.35
2022-12-20T20:09:58.626Z,10.68
2022-12-20T20:12:28.193Z,11.82
2022-12-20T20:14:57.728Z,10.90
2022-12-20T20:17:29.828Z,15.00
2022-12-20T20:19:59.297Z,16.30
2022-12-20T20:22:28.717Z,16.88
2022-12-20T20:24:58.255Z,16.55
2022-12-20T20:27:27.725Z,14.80
2022-12-20T20:29:57.195Z,16.10
2022-12-20T20:32:29.566Z,15.10
2022-12-20T20:34:59.148Z,10.02
2022-12-20T20:37:28.615Z,11.07
2022-12-20T20:39:58.193Z,14.40
2022-12-20T20:42:27.751Z,18.75
2022-12-20T20:44:57.300Z,18.80
2022-12-20T20:47:29.366Z,17.20
2022-12-20T20:49:58.949Z,16.60
2022-12-20T20:52:28.422Z,13.65
2022-12-20T20:54:57.923Z,17.05
2022-12-20T20:57:27.385Z,15.68
2022-12-20T20:59:56.931Z,17.77
2022-12-20T21:02:29.287Z,17.60
2022-12-20T21:05:52.483Z,18.08
2022-12-20T21:07:48.686Z,17.48
2022-12-20T21:10:18.432Z,18.38
2022-12-20T21:12:48.082Z,15.10
2022-12-20T21:15:23.245Z,19.65
2022-12-20T21:17:55.945Z,18.03
2022-12-20T21:20:26.416Z,14.85
2022-12-20T21:22:57.361Z,18.00
2022-12-20T21:25:26.936Z,16.80
2022-12-20T21:27:56.479Z,13.50
2022-12-20T21:30:26.156Z,14.23
2022-12-20T21:32:58.596Z,15.17
2022-12-20T21:35:28.623Z,13.93
2022-12-20T21:37:58.145Z,12.50
2022-12-20T21:40:27.732Z,16.95
2022-12-20T21:42:57.164Z,13.63
2022-12-20T21:45:26.619Z,14.93
2022-12-20T21:48:03.072Z,17.73
2022-12-20T21:50:33.206Z,14.97
2022-12-20T21:53:02.690Z,16.57
2022-12-20T21:55:32.176Z,15.83
2022-12-20T21:58:01.594Z,13.85
2022-12-20T22:00:31.129Z,12.77
2022-12-20T22:03:03.413Z,14.77
2022-12-20T22:05:33.126Z,15.15
2022-12-20T22:08:02.581Z,17.47
2022-12-20T22:10:32.020Z,13.93
2022-12-20T22:13:01.617Z,13.07
2022-12-20T22:15:31.144Z,15.63
2022-12-20T22:18:03.279Z,15.57
2022-12-20T22:20:33.231Z,14.40
2022-12-20T22:23:02.768Z,16.27
2022-12-20T22:25:32.387Z,15.27
2022-12-20T22:28:01.833Z,8.30
2022-12-20T22:30:31.349Z,10.57
2022-12-20T22:33:03.600Z,9.97
2022-12-20T22:35:33.503Z,15.33
2022-12-20T22:38:03.049Z,17.30
2022-12-20T22:40:32.654Z,14.17
2022-12-20T22:43:02.178Z,15.85
2022-12-20T22:45:31.644Z,16.02
2022-12-20T22:48:03.789Z,16.90
2022-12-20T22:50:33.354Z,15.10
2022-12-20T22:53:02.846Z,17.90
2022-12-20T22:55:32.432Z,15.60
2022-12-20T22:58:01.930Z,12.07
2022-12-20T23:00:31.546Z,15.63
2022-12-20T23:03:03.870Z,15.83
2022-12-20T23:05:34.012Z,11.27
2022-12-20T23:08:03.574Z,16.30
2022-12-20T23:10:45.546Z,12.57
2022-12-20T23:13:28.086Z,13.67
2022-12-20T23:15:57.763Z,14.00
2022-12-20T23:18:29.836Z,13.73
2022-12-20T23:21:11.778Z,10.90
2022-12-20T23:23:41.462Z,11.33
2022-12-20T23:26:11.809Z,12.13
2022-12-20T23:28:41.555Z,14.10
2022-12-20T23:31:11.341Z,11.25
2022-12-20T23:33:44.986Z,11.23
2022-12-20T23:36:14.544Z,21.40
2022-12-20T23:38:44.027Z,21.63
2022-12-20T23:41:15.388Z,17.45
2022-12-20T23:43:45.203Z,14.90
2022-12-20T23:46:15.747Z,13.35
2022-12-20T23:48:48.117Z,14.63
2022-12-20T23:51:17.911Z,13.85
2022-12-20T23:53:47.537Z,16.13
2022-12-20T23:56:17.990Z,14.10
2022-12-20T23:58:47.781Z,13.25
